Ioka, Utah
Current Conditions -  °F | °C
As of 10:53 PM on Wednesday 22 Oct 2014 (Local Time) from KVEL Reporting Station
Clear Clear  
Wind Chill: 44°   Ceiling: Unl
Heat Index: 46°   Visibility: 10mi
Dew Point: 34°   Wind: 5mph
Humidity: 63%   Direction: 290°WNW
Pressure: 30.2"   Gusts: NA
Location:  40.5914°N, 110.379°W
Report Text: KVEL 230453Z AUTO 29004KT 10SM CLR 08/01 A3020 RMK AO2 SLP203 T00780011
Loading
Personal Weather Stations






























Interactive Weather Map
Tropical Storm Tracking
New forecast layout! Learn more

10-Day Weather Forecast

Advertisements
Track Severe Weather on mobile